createdAt,value
2018-07-14T00:01:42.285Z,24.73
2018-07-14T00:06:48.188Z,24.68
2018-07-14T00:11:53.312Z,24.63
2018-07-14T00:16:58.059Z,24.60
2018-07-14T00:22:02.900Z,24.56
2018-07-14T00:27:07.290Z,24.55
2018-07-14T00:32:11.656Z,24.58
2018-07-14T00:37:16.125Z,24.51
2018-07-14T00:42:20.406Z,24.48
2018-07-14T00:47:26.666Z,24.49
2018-07-14T00:52:36.550Z,24.48
2018-07-14T00:57:41.443Z,24.45
2018-07-14T01:02:46.717Z,24.46
2018-07-14T01:07:52.896Z,24.41
2018-07-14T01:12:57.184Z,24.68
2018-07-14T01:18:01.158Z,24.64
2018-07-14T01:23:05.107Z,24.62
2018-07-14T01:28:09.006Z,24.59
2018-07-14T01:33:15.422Z,24.56
2018-07-14T01:38:20.127Z,24.51
2018-07-14T01:43:24.081Z,24.43
2018-07-14T01:48:27.955Z,24.41
2018-07-14T01:53:31.855Z,24.39
2018-07-14T01:58:36.475Z,24.36
2018-07-14T02:03:40.487Z,24.32
2018-07-14T02:08:44.399Z,24.27
2018-07-14T02:13:48.484Z,24.23
2018-07-14T02:18:55.388Z,24.19
2018-07-14T02:23:59.256Z,24.16
2018-07-14T02:29:03.296Z,24.14
2018-07-14T02:34:08.078Z,24.12
2018-07-14T02:39:12.675Z,24.11
2018-07-14T02:44:17.651Z,24.11
2018-07-14T02:49:21.512Z,24.08
2018-07-14T02:54:26.025Z,24.08
2018-07-14T02:59:29.935Z,24.04
2018-07-14T03:04:33.846Z,24.04
2018-07-14T03:09:37.768Z,24.01
2018-07-14T03:14:41.863Z,23.99
2018-07-14T03:19:45.893Z,23.97
2018-07-14T03:24:49.945Z,23.96
2018-07-14T03:29:53.914Z,23.94
2018-07-14T03:34:58.696Z,23.93
2018-07-14T03:40:08.050Z,23.91
2018-07-14T03:45:12.033Z,23.90
2018-07-14T03:50:16.027Z,23.88
2018-07-14T03:55:20.035Z,23.87
2018-07-14T04:00:24.147Z,23.86
2018-07-14T04:05:28.976Z,23.88
2018-07-14T04:10:32.967Z,23.90
2018-07-14T04:15:38.996Z,23.90
2018-07-14T04:20:42.820Z,23.87
2018-07-14T04:25:47.112Z,23.87
2018-07-14T04:30:52.309Z,23.84
2018-07-14T04:35:56.378Z,23.84
2018-07-14T04:41:01.278Z,23.83
2018-07-14T04:46:06.108Z,23.82
2018-07-14T04:51:10.116Z,23.82
2018-07-14T04:56:14.433Z,23.79
2018-07-14T05:01:18.752Z,23.81
2018-07-14T05:06:22.837Z,23.78
2018-07-14T05:11:29.933Z,23.81
2018-07-14T05:16:34.070Z,23.79
2018-07-14T05:21:37.951Z,23.80
2018-07-14T05:26:42.047Z,23.79
2018-07-14T05:31:45.909Z,23.78
2018-07-14T05:36:50.744Z,23.78
2018-07-14T05:41:54.972Z,23.79
2018-07-14T05:47:02.946Z,23.78
2018-07-14T05:52:06.781Z,23.79
2018-07-14T05:57:10.675Z,23.78
2018-07-14T06:02:14.657Z,23.78
2018-07-14T06:07:18.735Z,23.77
2018-07-14T06:12:22.728Z,23.77
2018-07-14T06:17:26.776Z,23.77
2018-07-14T06:22:31.417Z,23.77
2018-07-14T06:27:35.278Z,23.77
2018-07-14T06:32:39.178Z,23.75
2018-07-14T06:37:43.973Z,23.77
2018-07-14T06:42:48.104Z,23.77
2018-07-14T06:47:51.988Z,23.77
2018-07-14T06:52:56.095Z,23.77
2018-07-14T06:58:00.931Z,23.76
2018-07-14T07:03:04.757Z,22.77
2018-07-14T07:08:08.718Z,22.45
2018-07-14T07:13:12.711Z,22.15
2018-07-14T07:18:16.603Z,22.44
2018-07-14T07:23:20.488Z,22.29
2018-07-14T07:28:26.370Z,22.18
2018-07-14T07:33:30.302Z,22.25
2018-07-14T07:38:34.142Z,22.07
2018-07-14T07:43:38.016Z,21.98
2018-07-14T07:48:42.607Z,21.82
2018-07-14T07:53:46.384Z,21.95
2018-07-14T07:58:50.683Z,21.77
2018-07-14T08:03:55.216Z,21.90
2018-07-14T08:08:59.055Z,21.72
2018-07-14T08:14:03.042Z,21.72
2018-07-14T08:19:07.360Z,21.72
2018-07-14T08:24:12.073Z,21.87
2018-07-14T08:29:16.286Z,21.77
2018-07-14T08:34:20.157Z,21.94
2018-07-14T08:39:25.054Z,22.04
2018-07-14T08:44:30.729Z,22.00
2018-07-14T08:49:35.418Z,21.91
2018-07-14T08:54:40.428Z,22.14
2018-07-14T08:59:44.856Z,22.04
2018-07-14T09:04:50.183Z,22.04
2018-07-14T09:09:56.314Z,21.97
2018-07-14T09:20:09.252Z,21.95
2018-07-14T09:25:14.255Z,21.93
2018-07-14T09:30:19.259Z,21.98
2018-07-14T09:35:23.053Z,22.12
2018-07-14T09:40:26.871Z,22.11
2018-07-14T09:45:30.832Z,22.14
2018-07-14T09:50:34.872Z,22.23
2018-07-14T09:55:39.476Z,22.21
2018-07-14T10:00:48.606Z,22.17
2018-07-14T10:05:52.930Z,22.32
2018-07-14T10:10:57.558Z,22.49
2018-07-14T10:16:03.170Z,22.44
2018-07-14T10:21:07.053Z,22.53
2018-07-14T10:26:11.039Z,22.58
2018-07-14T10:31:14.861Z,22.69
2018-07-14T10:36:18.626Z,22.79
2018-07-14T10:41:22.491Z,22.81
2018-07-14T10:46:26.314Z,22.88
2018-07-14T10:51:30.175Z,22.87
2018-07-14T10:56:33.930Z,22.91
2018-07-14T11:01:37.690Z,22.95
2018-07-14T11:06:41.539Z,23.00
2018-07-14T11:11:45.371Z,23.08
2018-07-14T11:16:49.156Z,23.11
2018-07-14T11:21:52.971Z,23.11
2018-07-14T11:26:56.786Z,23.13
2018-07-14T11:32:00.582Z,23.15
2018-07-14T11:37:06.137Z,23.25
2018-07-14T11:42:10.072Z,23.31
2018-07-14T11:47:15.272Z,23.35
2018-07-14T11:52:25.531Z,23.40
2018-07-14T11:57:30.090Z,23.42
2018-07-14T12:02:33.827Z,23.45
2018-07-14T12:07:38.709Z,23.45
2018-07-14T12:20:13.406Z,23.75
2018-07-14T12:25:17.045Z,23.69
2018-07-14T12:30:20.726Z,23.68
2018-07-14T12:35:24.442Z,23.72
2018-07-14T12:40:28.416Z,23.78
2018-07-14T12:45:32.129Z,23.78
2018-07-14T12:50:35.941Z,23.79
2018-07-14T12:55:39.755Z,23.83
2018-07-14T13:00:43.442Z,23.83
2018-07-14T13:05:47.213Z,23.84
2018-07-14T13:10:51.094Z,23.91
2018-07-14T13:15:54.696Z,23.89
2018-07-14T13:20:58.391Z,23.96
2018-07-14T13:26:01.998Z,23.96
2018-07-14T13:31:05.714Z,24.00
2018-07-14T13:36:09.314Z,24.03
2018-07-14T13:41:13.205Z,24.08
2018-07-14T13:46:16.997Z,24.03
2018-07-14T13:51:20.731Z,24.03
2018-07-14T13:56:24.474Z,24.06
2018-07-14T14:01:28.317Z,24.07
2018-07-14T14:06:31.962Z,24.11
2018-07-14T14:11:35.863Z,24.16
2018-07-14T14:16:39.686Z,24.17
2018-07-14T14:21:43.521Z,24.18
2018-07-14T14:26:47.402Z,24.22
2018-07-14T14:31:51.207Z,24.28
2018-07-14T14:36:55.150Z,24.31
2018-07-14T14:41:58.853Z,24.29
2018-07-14T14:47:02.827Z,24.32
2018-07-14T14:52:06.777Z,24.35
2018-07-14T14:57:10.643Z,24.38
2018-07-14T15:02:14.535Z,24.42
2018-07-14T15:07:18.228Z,24.44
2018-07-14T15:12:21.934Z,24.50
2018-07-14T15:17:25.690Z,24.50
2018-07-14T15:22:29.748Z,24.53
2018-07-14T15:27:33.602Z,24.68
2018-07-14T15:32:37.332Z,24.73
2018-07-14T15:37:41.026Z,24.65
2018-07-14T15:42:44.830Z,24.68
2018-07-14T15:47:48.534Z,24.67
2018-07-14T15:52:52.278Z,24.72
2018-07-14T15:57:55.963Z,24.78
2018-07-14T16:02:59.638Z,24.78
2018-07-14T16:08:03.359Z,24.81
2018-07-14T16:13:07.199Z,24.84
2018-07-14T16:18:10.896Z,24.86
2018-07-14T16:23:14.746Z,24.83
2018-07-14T16:28:18.372Z,24.84
2018-07-14T16:33:22.072Z,24.89
2018-07-14T16:38:25.682Z,24.95
2018-07-14T16:43:29.648Z,24.89
2018-07-14T16:48:33.301Z,24.91
2018-07-14T16:53:37.446Z,24.92
2018-07-14T16:58:41.210Z,24.86
2018-07-14T17:03:44.918Z,24.94
2018-07-14T17:08:48.607Z,24.96
2018-07-14T17:13:52.347Z,24.98
2018-07-14T17:18:56.079Z,25.05
2018-07-14T17:23:59.807Z,25.00
2018-07-14T17:29:03.511Z,25.01
2018-07-14T17:34:07.272Z,25.02
2018-07-14T17:39:12.090Z,25.05
2018-07-14T17:44:15.949Z,25.07
2018-07-14T17:49:19.699Z,25.19
2018-07-14T17:54:23.390Z,25.16
2018-07-14T17:59:27.141Z,25.17
2018-07-14T18:04:31.801Z,25.28
2018-07-14T18:09:41.244Z,25.22
2018-07-14T18:14:45.692Z,25.18
2018-07-14T18:19:49.493Z,25.21
2018-07-14T18:24:53.402Z,25.20
2018-07-14T18:29:57.199Z,25.18
2018-07-14T18:35:05.804Z,25.16
2018-07-14T18:40:09.488Z,25.28
2018-07-14T18:45:13.427Z,25.23
2018-07-14T18:50:17.883Z,25.22
2018-07-14T18:55:21.783Z,25.19
2018-07-14T19:00:25.616Z,25.19
2018-07-14T19:05:29.628Z,25.21
2018-07-14T19:10:33.282Z,25.19
2018-07-14T19:15:36.947Z,25.13
2018-07-14T19:20:40.601Z,24.86
2018-07-14T19:25:44.620Z,25.03
2018-07-14T19:30:48.305Z,25.02
2018-07-14T19:35:52.021Z,24.96
2018-07-14T19:40:55.709Z,24.92
2018-07-14T19:45:59.366Z,24.97
2018-07-14T19:51:03.110Z,24.96
2018-07-14T19:56:06.893Z,25.00
2018-07-14T20:01:10.619Z,25.06
2018-07-14T20:06:14.504Z,24.91
2018-07-14T20:11:18.274Z,24.91
2018-07-14T20:16:21.886Z,24.94
2018-07-14T20:21:25.648Z,24.88
2018-07-14T20:26:29.512Z,24.88
2018-07-14T20:31:33.286Z,24.79
2018-07-14T20:36:37.101Z,24.76
2018-07-14T20:41:40.895Z,24.74
2018-07-14T20:46:44.784Z,24.71
2018-07-14T20:51:48.829Z,24.73
2018-07-14T20:56:52.514Z,24.68
2018-07-14T21:01:56.606Z,24.68
2018-07-14T21:07:00.305Z,24.68
2018-07-14T21:12:04.071Z,24.63
2018-07-14T21:17:07.843Z,24.69
2018-07-14T21:22:11.723Z,24.64
2018-07-14T21:27:15.421Z,24.66
2018-07-14T21:32:19.207Z,24.60
2018-07-14T21:37:22.862Z,24.58
2018-07-14T21:42:26.602Z,24.56
2018-07-14T21:47:30.963Z,24.47
2018-07-14T21:52:34.639Z,24.45
2018-07-14T21:57:38.990Z,24.46
2018-07-14T22:02:42.899Z,24.47
2018-07-14T22:07:46.608Z,24.43
2018-07-14T22:12:50.770Z,24.45
2018-07-14T22:17:54.606Z,24.45
2018-07-14T22:22:58.337Z,24.43
2018-07-14T22:28:02.154Z,24.39
2018-07-14T22:33:05.979Z,24.35
2018-07-14T22:38:09.752Z,24.35
2018-07-14T22:43:13.528Z,24.28
2018-07-14T22:48:17.219Z,24.23
2018-07-14T22:53:20.945Z,24.26
2018-07-14T22:58:24.642Z,24.25
2018-07-14T23:03:28.347Z,24.26
2018-07-14T23:08:31.934Z,24.26
2018-07-14T23:13:35.695Z,24.09
2018-07-14T23:18:39.437Z,24.14
2018-07-14T23:23:43.165Z,24.21
2018-07-14T23:28:46.869Z,24.14
2018-07-14T23:33:57.123Z,24.09
2018-07-14T23:39:00.851Z,23.98
2018-07-14T23:44:04.554Z,24.09
2018-07-14T23:49:08.511Z,24.20
2018-07-14T23:54:12.157Z,24.18
2018-07-14T23:59:15.802Z,24.15
